createdAt,value
2019-03-19T00:00:32.727Z,8.07
2019-03-19T00:03:00.863Z,7.90
2019-03-19T00:05:28.725Z,10.33
2019-03-19T00:07:56.215Z,7.57
2019-03-19T00:10:23.946Z,7.30
2019-03-19T00:12:51.492Z,7.83
2019-03-19T00:15:19.608Z,8.13
2019-03-19T00:17:47.318Z,10.87
2019-03-19T00:20:14.776Z,11.10
2019-03-19T00:22:43.031Z,10.27
2019-03-19T00:25:11.070Z,7.40
2019-03-19T00:27:38.840Z,6.87
2019-03-19T00:30:07.295Z,7.30
2019-03-19T00:32:34.763Z,8.63
2019-03-19T00:35:02.634Z,8.80
2019-03-19T00:37:30.078Z,8.83
2019-03-19T00:39:57.852Z,9.37
2019-03-19T00:42:25.234Z,9.73
2019-03-19T00:44:52.726Z,8.30
2019-03-19T00:47:20.451Z,8.73
2019-03-19T00:49:47.876Z,7.80
2019-03-19T00:52:15.678Z,7.13
2019-03-19T00:54:43.188Z,7.67
2019-03-19T00:57:10.655Z,7.73
2019-03-19T00:59:38.519Z,7.63
2019-03-19T01:02:06.058Z,8.33
2019-03-19T01:04:33.798Z,9.30
2019-03-19T01:07:01.748Z,11.63
2019-03-19T01:09:29.524Z,7.10
2019-03-19T01:11:57.112Z,8.60
2019-03-19T01:14:25.151Z,8.07
2019-03-19T01:16:52.955Z,9.67
2019-03-19T01:19:20.537Z,8.53
2019-03-19T01:21:48.005Z,8.10
2019-03-19T01:24:15.746Z,7.93
2019-03-19T01:26:43.696Z,7.90
2019-03-19T01:29:11.391Z,7.27
2019-03-19T01:31:38.955Z,10.73
2019-03-19T01:34:06.708Z,8.80
2019-03-19T01:36:34.726Z,7.90
2019-03-19T01:39:04.361Z,8.13
2019-03-19T01:41:32.142Z,6.30
2019-03-19T01:43:59.559Z,7.83
2019-03-19T01:46:26.992Z,6.80
2019-03-19T01:48:54.720Z,7.83
2019-03-19T01:51:22.630Z,7.77
2019-03-19T01:53:50.111Z,8.77
2019-03-19T01:56:18.256Z,10.00
2019-03-19T01:58:45.718Z,7.40
2019-03-19T02:01:13.307Z,8.37
2019-03-19T02:03:40.866Z,9.03
2019-03-19T02:06:08.413Z,9.27
2019-03-19T02:08:35.859Z,8.27
2019-03-19T02:11:03.390Z,8.30
2019-03-19T02:13:31.102Z,8.90
2019-03-19T02:15:58.585Z,9.00
2019-03-19T02:18:26.359Z,9.97
2019-03-19T02:20:53.855Z,8.83
2019-03-19T02:23:21.340Z,8.63
2019-03-19T02:25:49.544Z,9.43
2019-03-19T02:28:17.483Z,8.40
2019-03-19T02:30:45.519Z,9.73
2019-03-19T02:33:13.039Z,8.03
2019-03-19T02:35:41.056Z,9.00
2019-03-19T02:38:09.071Z,8.07
2019-03-19T02:40:36.606Z,13.70
2019-03-19T02:43:04.461Z,9.73
2019-03-19T02:45:32.260Z,10.27
2019-03-19T02:47:59.719Z,11.47
2019-03-19T02:50:27.859Z,9.73
2019-03-19T02:52:55.362Z,9.07
2019-03-19T02:55:23.073Z,8.20
2019-03-19T02:57:50.588Z,9.53
2019-03-19T03:00:18.366Z,10.10
2019-03-19T03:02:46.636Z,8.80
2019-03-19T03:05:14.135Z,8.73
2019-03-19T03:07:41.857Z,8.07
2019-03-19T03:15:40.359Z,10.40
2019-03-19T03:18:07.955Z,12.63
2019-03-19T03:20:35.297Z,10.00
2019-03-19T03:23:02.769Z,10.73
2019-03-19T03:25:30.204Z,8.03
2019-03-19T03:27:57.635Z,9.17
2019-03-19T03:30:25.229Z,9.97
2019-03-19T03:32:53.053Z,7.47
2019-03-19T03:35:20.695Z,9.43
2019-03-19T03:37:48.046Z,6.63
2019-03-19T03:40:15.818Z,7.13
2019-03-19T03:42:43.671Z,7.23
2019-03-19T03:45:11.517Z,7.50
2019-03-19T03:47:38.866Z,6.20
2019-03-19T03:50:07.611Z,8.37
2019-03-19T03:52:34.935Z,7.10
2019-03-19T03:55:02.297Z,5.97
2019-03-19T03:57:29.983Z,10.83
2019-03-19T03:59:57.431Z,8.23
2019-03-19T04:02:24.788Z,9.07
2019-03-19T04:04:52.127Z,8.47
2019-03-19T04:07:19.789Z,10.33
2019-03-19T04:09:47.393Z,7.67
2019-03-19T04:12:14.715Z,8.40
2019-03-19T04:14:42.102Z,10.07
2019-03-19T04:17:09.549Z,7.53
2019-03-19T04:19:37.151Z,7.97
2019-03-19T04:22:04.763Z,9.57
2019-03-19T04:24:32.448Z,6.33
2019-03-19T04:26:59.762Z,10.93
2019-03-19T04:29:27.207Z,8.07
2019-03-19T04:31:54.781Z,12.70
2019-03-19T04:34:22.493Z,9.37
2019-03-19T04:36:50.115Z,9.50
2019-03-19T04:39:17.749Z,8.60
2019-03-19T04:41:45.517Z,8.20
2019-03-19T04:44:13.151Z,11.80
2019-03-19T04:46:40.853Z,10.23
2019-03-19T04:49:08.907Z,10.57
2019-03-19T04:51:36.203Z,8.27
2019-03-19T04:54:03.555Z,9.67
2019-03-19T04:56:30.869Z,7.93
2019-03-19T04:58:58.562Z,8.80
2019-03-19T05:01:25.877Z,9.97
2019-03-19T05:03:53.223Z,8.17
2019-03-19T05:06:20.554Z,9.67
2019-03-19T05:08:48.539Z,8.10
2019-03-19T05:11:16.129Z,11.80
2019-03-19T05:13:43.999Z,6.47
2019-03-19T05:16:11.622Z,8.93
2019-03-19T05:18:39.055Z,9.87
2019-03-19T05:21:06.417Z,11.07
2019-03-19T05:23:33.740Z,9.23
2019-03-19T05:26:01.076Z,8.67
2019-03-19T05:28:28.428Z,8.67
2019-03-19T05:30:56.153Z,9.07
2019-03-19T05:33:23.468Z,7.60
2019-03-19T05:35:51.392Z,10.47
2019-03-19T05:38:18.710Z,11.87
2019-03-19T05:40:46.443Z,10.10
2019-03-19T05:43:13.823Z,8.13
2019-03-19T05:45:41.278Z,14.13
2019-03-19T05:48:08.898Z,8.93
2019-03-19T05:50:36.521Z,12.07
2019-03-19T05:53:04.167Z,7.63
2019-03-19T05:55:31.844Z,10.50
2019-03-19T05:57:59.452Z,10.37
2019-03-19T06:00:28.207Z,8.80
2019-03-19T06:02:55.903Z,9.90
2019-03-19T06:05:23.622Z,9.37
2019-03-19T06:07:51.238Z,8.20
2019-03-19T06:10:18.670Z,12.87
2019-03-19T06:12:46.356Z,7.17
2019-03-19T06:15:13.806Z,10.70
2019-03-19T06:17:41.459Z,9.03
2019-03-19T06:20:10.243Z,8.43
2019-03-19T06:22:37.850Z,11.17
2019-03-19T06:25:05.773Z,12.07
2019-03-19T06:27:33.482Z,10.77
2019-03-19T06:30:00.938Z,10.60
2019-03-19T06:32:28.319Z,24.47
2019-03-19T06:34:56.290Z,10.17
2019-03-19T06:37:24.331Z,9.63
2019-03-19T06:39:51.703Z,13.40
2019-03-19T06:42:19.015Z,13.70
2019-03-19T06:44:46.658Z,9.50
2019-03-19T06:47:14.000Z,13.67
2019-03-19T06:49:41.474Z,9.17
2019-03-19T06:52:08.916Z,10.70
2019-03-19T06:54:36.997Z,11.00
2019-03-19T06:57:04.660Z,7.77
2019-03-19T06:59:32.047Z,7.33
2019-03-19T07:01:59.636Z,9.53
2019-03-19T07:04:26.985Z,11.27
2019-03-19T07:06:54.443Z,9.17
2019-03-19T07:09:21.807Z,8.73
2019-03-19T07:11:49.246Z,9.10
2019-03-19T07:14:16.831Z,9.80
2019-03-19T07:16:44.838Z,8.30
2019-03-19T07:19:12.434Z,9.27
2019-03-19T07:21:40.056Z,9.23
2019-03-19T07:24:07.829Z,10.53
2019-03-19T07:26:35.698Z,10.00
2019-03-19T07:29:03.382Z,8.37
2019-03-19T07:31:31.366Z,9.40
2019-03-19T07:33:58.810Z,12.77
2019-03-19T07:36:26.266Z,8.30
2019-03-19T07:38:53.672Z,8.23
2019-03-19T07:41:21.036Z,6.73
2019-03-19T07:43:48.453Z,7.73
2019-03-19T07:46:16.231Z,11.00
2019-03-19T07:48:43.561Z,12.23
2019-03-19T07:51:11.258Z,8.63
2019-03-19T07:53:38.672Z,8.70
2019-03-19T07:56:06.444Z,9.40
2019-03-19T07:58:44.742Z,6.47
2019-03-19T08:01:03.743Z,9.07
2019-03-19T08:03:31.362Z,6.67
2019-03-19T08:05:59.308Z,12.87
2019-03-19T08:08:26.745Z,7.93
2019-03-19T08:10:54.147Z,10.60
2019-03-19T08:13:21.862Z,8.77
2019-03-19T08:15:49.596Z,11.13
2019-03-19T08:18:17.083Z,11.20
2019-03-19T08:20:44.421Z,11.93
2019-03-19T08:23:12.254Z,8.93
2019-03-19T08:25:39.893Z,10.27
2019-03-19T08:28:07.397Z,8.57
2019-03-19T08:30:34.721Z,10.53
2019-03-19T08:33:02.080Z,8.10
2019-03-19T08:35:29.700Z,11.13
2019-03-19T08:37:57.173Z,5.90
2019-03-19T08:40:25.031Z,11.23
2019-03-19T08:42:52.946Z,9.80
2019-03-19T08:45:20.712Z,8.47
2019-03-19T08:47:48.506Z,9.47
2019-03-19T08:50:16.202Z,8.73
2019-03-19T08:52:43.808Z,10.80
2019-03-19T08:55:11.808Z,8.43
2019-03-19T08:57:39.228Z,11.20
2019-03-19T09:00:09.716Z,9.37
2019-03-19T09:02:37.196Z,7.13
2019-03-19T09:05:04.959Z,10.03
2019-03-19T09:07:32.657Z,7.63
2019-03-19T09:09:59.964Z,9.90
2019-03-19T09:12:27.910Z,11.67
2019-03-19T09:14:55.554Z,8.33
2019-03-19T09:17:22.942Z,8.60
2019-03-19T09:19:50.587Z,10.20
2019-03-19T09:22:17.992Z,8.33
2019-03-19T09:24:45.395Z,8.63
2019-03-19T09:27:12.842Z,7.90
2019-03-19T09:29:40.936Z,11.60
2019-03-19T09:32:08.660Z,8.57
2019-03-19T09:34:36.013Z,6.90
2019-03-19T09:37:03.449Z,6.13
2019-03-19T09:39:30.854Z,10.07
2019-03-19T09:41:59.014Z,8.13
2019-03-19T09:44:26.471Z,7.27
2019-03-19T09:46:54.201Z,9.73
2019-03-19T09:49:22.147Z,7.03
2019-03-19T09:51:49.870Z,7.13
2019-03-19T09:54:17.569Z,8.20
2019-03-19T09:56:46.156Z,6.10
2019-03-19T09:59:13.950Z,10.73
2019-03-19T10:01:41.733Z,6.40
2019-03-19T10:04:09.156Z,14.97
2019-03-19T10:06:36.770Z,9.70
2019-03-19T10:09:06.901Z,7.17
2019-03-19T10:11:34.256Z,9.37
2019-03-19T10:14:01.872Z,10.03
2019-03-19T10:16:29.614Z,7.63
2019-03-19T10:18:57.012Z,6.73
2019-03-19T10:21:24.364Z,4.13
2019-03-19T10:23:51.716Z,6.77
2019-03-19T10:26:19.498Z,7.30
2019-03-19T10:28:46.863Z,8.10
2019-03-19T10:31:14.576Z,10.47
2019-03-19T10:33:41.977Z,7.97
2019-03-19T10:36:09.629Z,7.70
2019-03-19T10:38:36.962Z,9.60
2019-03-19T10:41:04.584Z,11.90
2019-03-19T10:43:31.978Z,5.47
2019-03-19T10:45:59.609Z,6.50
2019-03-19T10:48:27.016Z,6.63
2019-03-19T10:50:54.997Z,8.17
2019-03-19T10:53:22.358Z,6.63
2019-03-19T10:55:49.654Z,4.60
2019-03-19T10:58:17.321Z,5.93
2019-03-19T11:00:44.905Z,4.77
2019-03-19T11:03:12.569Z,9.03
2019-03-19T11:05:40.243Z,5.60
2019-03-19T11:08:07.638Z,5.27
2019-03-19T11:10:35.251Z,2.67
2019-03-19T11:13:02.588Z,6.83
2019-03-19T11:15:31.714Z,6.33
2019-03-19T11:17:59.716Z,6.33
2019-03-19T11:20:27.126Z,4.83
2019-03-19T11:22:55.334Z,8.10
2019-03-19T11:25:22.881Z,6.13
2019-03-19T11:27:50.242Z,7.57
2019-03-19T11:30:19.466Z,5.93
2019-03-19T11:32:47.199Z,6.27
2019-03-19T11:35:14.909Z,9.67
2019-03-19T11:37:42.297Z,4.23
2019-03-19T11:40:10.695Z,6.50
2019-03-19T11:42:38.090Z,7.77
2019-03-19T11:45:06.710Z,4.20
2019-03-19T11:47:34.054Z,7.40
2019-03-19T11:50:01.793Z,9.40
2019-03-19T11:52:29.428Z,4.50
2019-03-19T11:54:56.868Z,6.50
2019-03-19T11:57:24.238Z,4.87
2019-03-19T11:59:51.599Z,8.13
2019-03-19T12:02:25.798Z,7.03
2019-03-19T12:04:48.247Z,3.90
2019-03-19T12:07:15.652Z,4.37
2019-03-19T12:09:43.113Z,5.20
2019-03-19T12:12:11.769Z,5.33
2019-03-19T12:14:39.227Z,6.83
2019-03-19T12:17:06.855Z,4.50
2019-03-19T12:19:34.114Z,6.83
2019-03-19T12:22:01.739Z,5.23
2019-03-19T12:24:29.138Z,2.70
2019-03-19T12:26:56.754Z,5.20
2019-03-19T12:29:24.166Z,4.20
2019-03-19T12:31:51.517Z,5.03
2019-03-19T12:34:18.943Z,3.77
2019-03-19T12:36:46.303Z,3.83
2019-03-19T12:39:14.022Z,5.57
2019-03-19T12:41:41.425Z,3.50
2019-03-19T12:44:08.843Z,4.30
2019-03-19T12:46:36.216Z,5.50
2019-03-19T12:49:03.538Z,5.30
2019-03-19T12:51:31.299Z,4.10
2019-03-19T12:53:59.245Z,4.90
2019-03-19T12:56:26.838Z,4.20
2019-03-19T12:58:54.323Z,6.10
2019-03-19T13:01:21.885Z,4.83
2019-03-19T13:03:49.865Z,5.33
2019-03-19T13:06:17.289Z,4.43
2019-03-19T13:08:45.066Z,3.43
2019-03-19T13:11:13.051Z,4.27
2019-03-19T13:13:41.054Z,4.53
2019-03-19T13:16:11.943Z,4.77
2019-03-19T13:18:39.410Z,5.37
2019-03-19T13:21:06.835Z,7.13
2019-03-19T13:23:34.634Z,5.10
2019-03-19T13:26:02.651Z,6.33
2019-03-19T13:28:30.171Z,5.37
2019-03-19T13:30:57.583Z,5.87
2019-03-19T13:33:25.321Z,5.03
2019-03-19T13:35:52.762Z,4.97
2019-03-19T13:38:20.212Z,9.07
2019-03-19T13:40:47.891Z,6.53
2019-03-19T13:43:15.323Z,4.17
2019-03-19T13:45:42.723Z,3.90
2019-03-19T13:48:10.083Z,5.80
2019-03-19T13:50:37.960Z,4.10
2019-03-19T13:53:05.664Z,5.10
2019-03-19T13:55:33.247Z,2.80
2019-03-19T13:58:00.718Z,2.77
2019-03-19T14:00:28.096Z,4.57
2019-03-19T14:02:56.202Z,6.03
2019-03-19T14:05:25.762Z,4.10
2019-03-19T14:07:53.163Z,7.23
2019-03-19T14:10:20.874Z,5.83
2019-03-19T14:12:48.705Z,4.90
2019-03-19T14:15:16.254Z,5.47
2019-03-19T14:17:43.814Z,4.17
2019-03-19T14:20:13.133Z,3.23
2019-03-19T14:22:40.530Z,7.00
2019-03-19T14:25:08.531Z,4.50
2019-03-19T14:27:36.248Z,3.87
2019-03-19T14:30:04.572Z,5.17
2019-03-19T14:32:32.340Z,7.67
2019-03-19T14:34:59.744Z,5.63
2019-03-19T14:37:27.434Z,4.77
2019-03-19T14:39:55.158Z,4.80
2019-03-19T14:42:23.041Z,2.93
2019-03-19T14:44:50.463Z,3.63
2019-03-19T14:47:18.512Z,3.33
2019-03-19T14:49:48.773Z,3.50
2019-03-19T14:52:15.468Z,2.43
2019-03-19T14:54:43.131Z,5.47
2019-03-19T14:57:10.538Z,5.63
2019-03-19T14:59:38.665Z,4.63
2019-03-19T15:02:06.757Z,7.50
2019-03-19T15:04:34.587Z,4.30
2019-03-19T15:07:02.093Z,3.00
2019-03-19T15:09:29.573Z,3.53
2019-03-19T15:11:57.326Z,3.47
2019-03-19T15:14:24.701Z,2.67
2019-03-19T15:16:52.131Z,3.63
2019-03-19T15:19:19.778Z,6.87
2019-03-19T15:21:47.704Z,2.47
2019-03-19T15:24:15.118Z,3.43
2019-03-19T15:26:42.765Z,7.17
2019-03-19T15:29:10.117Z,5.13
2019-03-19T15:31:37.824Z,3.20
2019-03-19T15:34:05.157Z,4.43
2019-03-19T15:36:32.763Z,6.50
2019-03-19T15:39:00.110Z,6.20
2019-03-19T15:41:27.823Z,4.63
2019-03-19T15:43:55.279Z,5.80
2019-03-19T15:46:23.298Z,4.60
2019-03-19T15:48:50.719Z,2.47
2019-03-19T15:51:18.063Z,3.33
2019-03-19T15:53:45.485Z,5.20
2019-03-19T15:56:12.906Z,5.53
2019-03-19T15:58:40.412Z,4.20
2019-03-19T16:01:07.775Z,5.57
2019-03-19T16:03:35.378Z,5.37
2019-03-19T16:06:02.949Z,6.00
2019-03-19T16:08:30.556Z,3.17
2019-03-19T16:10:57.915Z,4.20
2019-03-19T16:13:25.382Z,2.90
2019-03-19T16:15:52.872Z,7.33
2019-03-19T16:18:20.213Z,3.37
2019-03-19T16:20:47.549Z,3.57
2019-03-19T16:23:14.977Z,3.10
2019-03-19T16:25:42.504Z,3.77
2019-03-19T16:28:09.849Z,4.20
2019-03-19T16:30:37.201Z,4.93
2019-03-19T16:33:04.835Z,6.10
2019-03-19T16:35:32.361Z,3.33
2019-03-19T16:37:59.930Z,5.93
2019-03-19T16:40:27.940Z,6.10
2019-03-19T16:42:55.925Z,3.43
2019-03-19T16:45:23.498Z,7.70
2019-03-19T16:47:51.160Z,5.87
2019-03-19T16:50:18.734Z,8.80
2019-03-19T16:52:46.679Z,5.37
2019-03-19T16:55:14.490Z,4.23
2019-03-19T16:57:42.084Z,5.30
2019-03-19T17:00:12.144Z,6.57
2019-03-19T17:02:39.662Z,5.63
2019-03-19T17:05:07.514Z,5.40
2019-03-19T17:07:35.032Z,3.60
2019-03-19T17:10:02.886Z,3.13
2019-03-19T17:12:30.920Z,7.77
2019-03-19T17:14:59.326Z,5.93
2019-03-19T17:17:27.227Z,5.57
2019-03-19T17:19:54.826Z,4.53
2019-03-19T17:22:23.095Z,4.57
2019-03-19T17:24:50.743Z,4.37
2019-03-19T17:27:18.341Z,5.43
2019-03-19T17:29:45.898Z,3.23
2019-03-19T17:32:13.806Z,3.50
2019-03-19T17:34:41.430Z,4.57
2019-03-19T17:37:09.151Z,5.13
2019-03-19T17:39:37.084Z,5.67
2019-03-19T17:42:04.824Z,4.37
2019-03-19T17:44:32.271Z,6.03
2019-03-19T17:46:59.956Z,5.07
2019-03-19T17:49:27.704Z,3.63
2019-03-19T17:51:55.227Z,4.70
2019-03-19T17:54:23.092Z,3.73
2019-03-19T17:56:50.989Z,6.97
2019-03-19T17:59:24.807Z,4.97
2019-03-19T18:01:55.409Z,3.80
2019-03-19T18:04:23.096Z,5.40
2019-03-19T18:06:50.646Z,5.47
2019-03-19T18:09:18.337Z,6.57
2019-03-19T18:11:45.765Z,7.10
2019-03-19T18:14:13.350Z,7.53
2019-03-19T18:16:41.199Z,8.87
2019-03-19T18:19:09.011Z,6.50
2019-03-19T18:21:36.884Z,8.13
2019-03-19T18:24:04.300Z,5.10
2019-03-19T18:26:31.790Z,6.33
2019-03-19T18:28:59.326Z,6.20
2019-03-19T18:31:27.243Z,4.73
2019-03-19T18:33:55.055Z,5.43
2019-03-19T18:36:22.913Z,5.10
2019-03-19T18:38:50.350Z,7.47
2019-03-19T18:41:17.914Z,6.70
2019-03-19T18:43:45.456Z,7.87
2019-03-19T18:46:13.077Z,5.17
2019-03-19T18:48:40.944Z,6.87
2019-03-19T18:51:08.886Z,5.93
2019-03-19T18:53:36.443Z,7.07
2019-03-19T18:56:04.054Z,8.50
2019-03-19T18:58:31.558Z,7.80
2019-03-19T19:00:59.088Z,7.07
2019-03-19T19:03:26.696Z,7.23
2019-03-19T19:05:54.647Z,9.03
2019-03-19T19:08:22.265Z,6.27
2019-03-19T19:10:50.139Z,7.57
2019-03-19T19:13:17.901Z,6.73
2019-03-19T19:15:45.384Z,5.50
2019-03-19T19:18:13.700Z,6.63
2019-03-19T19:20:41.565Z,6.10
2019-03-19T19:23:09.855Z,9.50
2019-03-19T19:25:38.245Z,9.30
2019-03-19T19:28:06.471Z,7.67
2019-03-19T19:35:50.994Z,11.50
2019-03-19T19:38:18.493Z,12.70
2019-03-19T19:40:46.698Z,8.80
2019-03-19T19:43:14.985Z,8.70
2019-03-19T19:45:42.620Z,10.00
2019-03-19T19:48:10.539Z,11.17
2019-03-19T19:50:38.446Z,10.47
2019-03-19T19:53:06.212Z,7.87
2019-03-19T19:55:33.860Z,10.60
2019-03-19T19:58:01.497Z,8.83
2019-03-19T20:00:29.125Z,9.30
2019-03-19T20:02:56.701Z,8.83
2019-03-19T20:05:24.299Z,7.93
2019-03-19T20:07:52.544Z,11.43
2019-03-19T20:10:20.213Z,7.93
2019-03-19T20:12:48.407Z,7.97
2019-03-19T20:15:16.072Z,5.50
2019-03-19T20:17:43.624Z,8.20
2019-03-19T20:20:12.927Z,8.83
2019-03-19T20:22:40.886Z,7.10
2019-03-19T20:25:09.408Z,6.57
2019-03-19T20:27:37.343Z,10.27
2019-03-19T20:30:06.977Z,13.97
2019-03-19T20:32:34.631Z,11.80
2019-03-19T20:35:02.613Z,9.13
2019-03-19T20:37:30.244Z,15.07
2019-03-19T20:39:58.462Z,11.87
2019-03-19T20:42:26.340Z,11.17
2019-03-19T20:44:53.930Z,11.33
2019-03-19T20:47:22.274Z,8.23
2019-03-19T20:49:49.828Z,10.27
2019-03-19T20:52:17.469Z,9.80
2019-03-19T20:54:45.155Z,13.53
2019-03-19T20:57:13.154Z,11.90
2019-03-19T20:59:40.729Z,10.83
2019-03-19T21:02:08.940Z,13.13
2019-03-19T21:04:36.832Z,13.40
2019-03-19T21:07:04.435Z,10.93
2019-03-19T21:09:32.110Z,13.40
2019-03-19T21:12:00.062Z,12.33
2019-03-19T21:14:29.172Z,12.73
2019-03-19T21:16:57.529Z,12.83
2019-03-19T21:19:25.167Z,11.77
2019-03-19T21:21:52.794Z,13.30
2019-03-19T21:24:20.658Z,13.60
2019-03-19T21:26:48.496Z,12.33
2019-03-19T21:29:16.082Z,9.87
2019-03-19T21:31:43.712Z,12.30
2019-03-19T21:34:11.321Z,8.90
2019-03-19T21:36:39.269Z,11.70
2019-03-19T21:39:07.402Z,13.33
2019-03-19T21:41:35.288Z,8.83
2019-03-19T21:44:03.303Z,10.57
2019-03-19T21:46:31.307Z,9.23
2019-03-19T21:48:59.514Z,8.10
2019-03-19T21:51:27.837Z,8.87
2019-03-19T21:53:55.746Z,9.03
2019-03-19T21:56:24.019Z,9.20
2019-03-19T21:58:51.680Z,7.97
2019-03-19T22:01:19.407Z,10.77
2019-03-19T22:03:47.006Z,7.67
2019-03-19T22:06:16.508Z,11.10
2019-03-19T22:08:44.409Z,7.83
2019-03-19T22:11:12.042Z,8.40
2019-03-19T22:13:40.034Z,8.47
2019-03-19T22:16:07.697Z,7.40
2019-03-19T22:18:35.659Z,7.70
2019-03-19T22:21:03.236Z,12.93
2019-03-19T22:23:30.869Z,6.80
2019-03-19T22:25:58.785Z,8.20
2019-03-19T22:28:26.405Z,9.90
2019-03-19T22:30:54.338Z,9.70
2019-03-19T22:33:23.275Z,11.73
2019-03-19T22:35:51.293Z,8.57
2019-03-19T22:38:18.911Z,6.23
2019-03-19T22:40:46.886Z,7.10
2019-03-19T22:43:14.779Z,7.27
2019-03-19T22:45:42.393Z,9.07
2019-03-19T22:48:10.621Z,6.97
2019-03-19T22:50:38.209Z,6.37
2019-03-19T22:53:06.214Z,7.20
2019-03-19T22:55:33.831Z,7.73
2019-03-19T22:58:01.480Z,6.33
2019-03-19T23:00:43.336Z,6.77
2019-03-19T23:03:10.941Z,6.50
2019-03-19T23:05:38.827Z,6.33
2019-03-19T23:08:06.462Z,6.20
2019-03-19T23:10:34.211Z,6.20
2019-03-19T23:13:02.489Z,7.30
2019-03-19T23:15:30.186Z,7.13
2019-03-19T23:17:57.829Z,5.43
2019-03-19T23:20:25.696Z,7.90
2019-03-19T23:22:53.301Z,5.40
2019-03-19T23:25:21.156Z,8.50
2019-03-19T23:27:48.745Z,6.90
2019-03-19T23:30:16.302Z,6.90
2019-03-19T23:32:44.176Z,6.50
2019-03-19T23:35:12.140Z,7.47
2019-03-19T23:37:40.022Z,9.43
2019-03-19T23:40:08.019Z,6.43
2019-03-19T23:42:35.948Z,7.60
2019-03-19T23:45:04.285Z,5.60
2019-03-19T23:47:31.905Z,8.83
2019-03-19T23:49:59.775Z,9.03
2019-03-19T23:52:27.768Z,8.17
2019-03-19T23:54:55.753Z,7.33
2019-03-19T23:57:23.354Z,6.83
2019-03-19T23:59:51.235Z,9.03
